createdAt,value
2018-07-25T00:00:21.533Z,99830.66
2018-07-25T00:02:52.511Z,99833.97
2018-07-25T00:05:24.227Z,99835.15
2018-07-25T00:07:55.355Z,99838.24
2018-07-25T00:10:31.440Z,99843.56
2018-07-25T00:13:02.453Z,99842.13
2018-07-25T00:15:33.396Z,99838.77
2018-07-25T00:18:04.441Z,99837.97
2018-07-25T00:20:35.437Z,99840.11
2018-07-25T00:23:06.805Z,99848.21
2018-07-25T00:25:37.590Z,99848.25
2018-07-25T00:28:08.651Z,99844.47
2018-07-25T00:30:39.565Z,99839.53
2018-07-25T00:33:10.473Z,99845.06
2018-07-25T00:35:41.502Z,99842.95
2018-07-25T00:38:12.550Z,99838.62
2018-07-25T00:40:43.503Z,99843.88
2018-07-25T00:43:14.502Z,99842.13
2018-07-25T00:45:45.586Z,99834.88
2018-07-25T00:48:16.536Z,99834.85
2018-07-25T00:50:47.526Z,99831.29
2018-07-25T00:53:18.538Z,99831.52
2018-07-25T00:55:49.510Z,99829.84
2018-07-25T00:58:20.509Z,99831.89
2018-07-25T01:00:51.562Z,99833.91
2018-07-25T01:03:22.567Z,99833.85
2018-07-25T01:05:53.565Z,99837.06
2018-07-25T01:08:24.545Z,99834.23
2018-07-25T01:10:55.569Z,99832.87
2018-07-25T01:13:26.572Z,99830.55
2018-07-25T01:15:57.592Z,99837.59
2018-07-25T01:18:28.538Z,99836.71
2018-07-25T01:20:59.521Z,99833.63
2018-07-25T01:23:30.493Z,99840.48
2018-07-25T01:26:01.539Z,99833.35
2018-07-25T01:28:32.461Z,99833.35
2018-07-25T01:31:03.433Z,99828.83
2018-07-25T01:33:34.475Z,99838.54
2018-07-25T01:36:05.437Z,99835.25
2018-07-25T01:38:36.452Z,99829.20
2018-07-25T01:41:07.465Z,99835.11
2018-07-25T01:43:38.458Z,99840.66
2018-07-25T01:46:09.515Z,99847.84
2018-07-25T01:48:40.482Z,99845.61
2018-07-25T01:51:11.459Z,99849.28
2018-07-25T01:53:42.422Z,99843.66
2018-07-25T01:56:13.509Z,99846.53
2018-07-25T01:58:44.470Z,99848.81
2018-07-25T02:01:15.529Z,99847.47
2018-07-25T02:03:46.415Z,99846.31
2018-07-25T02:06:17.579Z,99850.95
2018-07-25T02:08:48.481Z,99855.41
2018-07-25T02:11:19.468Z,99853.92
2018-07-25T02:13:50.444Z,99856.52
2018-07-25T02:16:21.450Z,99852.77
2018-07-25T02:18:52.502Z,99856.83
2018-07-25T02:21:23.526Z,99855.75
2018-07-25T02:23:54.517Z,99853.73
2018-07-25T02:26:25.526Z,99854.17
2018-07-25T02:28:56.553Z,99855.84
2018-07-25T02:31:27.586Z,99853.16
2018-07-25T02:34:03.745Z,99854.71
2018-07-25T02:36:34.686Z,99862.05
2018-07-25T02:39:09.556Z,99862.14
2018-07-25T02:41:40.513Z,99861.00
2018-07-25T02:44:11.519Z,99863.92
2018-07-25T02:46:42.519Z,99865.34
2018-07-25T02:49:13.531Z,99865.44
2018-07-25T02:51:44.602Z,99874.27
2018-07-25T02:54:15.585Z,99873.94
2018-07-25T02:56:46.590Z,99875.72
2018-07-25T02:59:17.517Z,99877.69
2018-07-25T03:01:49.027Z,99880.90
2018-07-25T03:04:20.399Z,99876.86
2018-07-25T03:06:51.498Z,99882.41
2018-07-25T03:09:22.477Z,99879.20
2018-07-25T03:11:53.528Z,99884.59
2018-07-25T03:14:24.782Z,99886.55
2018-07-25T03:16:55.600Z,99888.19
2018-07-25T03:19:26.753Z,99886.83
2018-07-25T03:21:57.620Z,99892.85
2018-07-25T03:24:28.528Z,99890.16
2018-07-25T03:26:59.553Z,99895.44
2018-07-25T03:29:30.795Z,99903.05
2018-07-25T03:32:01.569Z,99897.62
2018-07-25T03:34:32.457Z,99900.66
2018-07-25T03:37:03.454Z,99906.38
2018-07-25T03:39:34.416Z,99902.87
2018-07-25T03:42:05.474Z,99904.23
2018-07-25T03:44:36.463Z,99907.14
2018-07-25T03:47:08.208Z,99905.72
2018-07-25T03:49:39.306Z,99911.40
2018-07-25T03:52:10.365Z,99911.11
2018-07-25T03:54:41.366Z,99918.03
2018-07-25T03:57:12.362Z,99914.42
2018-07-25T03:59:43.349Z,99919.05
2018-07-25T04:02:14.393Z,99918.13
2018-07-25T04:04:45.456Z,99919.19
2018-07-25T04:07:16.428Z,99918.67
2018-07-25T04:09:47.418Z,99923.74
2018-07-25T04:12:18.480Z,99928.73
2018-07-25T04:14:49.464Z,99924.09
2018-07-25T04:17:20.693Z,99924.80
2018-07-25T04:19:51.565Z,99924.48
2018-07-25T04:22:22.473Z,99921.38
2018-07-25T04:24:53.440Z,99919.83
2018-07-25T04:27:24.465Z,99919.30
2018-07-25T04:29:55.426Z,99919.94
2018-07-25T04:32:26.431Z,99923.34
2018-07-25T04:34:57.433Z,99927.27
2018-07-25T04:37:28.582Z,99930.92
2018-07-25T04:39:59.477Z,99930.70
2018-07-25T04:42:30.458Z,99935.58
2018-07-25T04:45:01.495Z,99939.09
2018-07-25T04:47:32.495Z,99941.92
2018-07-25T04:50:03.485Z,99948.83
2018-07-25T04:52:34.473Z,99948.52
2018-07-25T04:55:05.529Z,99944.48
2018-07-25T04:57:36.488Z,99942.94
2018-07-25T05:00:08.565Z,99943.88
2018-07-25T05:02:39.564Z,99944.81
2018-07-25T05:05:10.497Z,99950.09
2018-07-25T05:07:41.485Z,99948.95
2018-07-25T05:10:12.671Z,99955.37
2018-07-25T05:12:43.562Z,99962.30
2018-07-25T05:15:14.491Z,99961.48
2018-07-25T05:17:45.495Z,99957.10
2018-07-25T05:20:16.463Z,99959.91
2018-07-25T05:22:47.540Z,99961.06
2018-07-25T05:25:18.473Z,99958.05
2018-07-25T05:27:49.422Z,99961.69
2018-07-25T05:30:20.754Z,99961.67
2018-07-25T05:32:51.558Z,99963.95
2018-07-25T05:35:22.474Z,99962.94
2018-07-25T05:37:53.526Z,99967.78
2018-07-25T05:40:24.461Z,99972.16
2018-07-25T05:42:55.509Z,99974.83
2018-07-25T05:45:26.681Z,99973.12
2018-07-25T05:47:57.505Z,99972.36
2018-07-25T05:50:28.525Z,99975.50
2018-07-25T05:52:59.479Z,99981.80
2018-07-25T05:55:30.461Z,99985.73
2018-07-25T05:58:01.469Z,99989.16
2018-07-25T06:00:32.830Z,99996.08
2018-07-25T06:03:03.420Z,99989.20
2018-07-25T06:05:34.357Z,99997.48
2018-07-25T06:08:05.364Z,99992.12
2018-07-25T06:10:36.374Z,99996.05
2018-07-25T06:13:07.459Z,99984.59
2018-07-25T06:15:38.481Z,99987.63
2018-07-25T06:18:09.448Z,99992.70
2018-07-25T06:20:40.471Z,99988.31
2018-07-25T06:23:11.448Z,99987.73
2018-07-25T06:25:42.448Z,99987.67
2018-07-25T06:28:13.514Z,99984.97
2018-07-25T06:30:44.485Z,99981.45
2018-07-25T06:33:15.494Z,99988.52
2018-07-25T06:35:46.522Z,99986.30
2018-07-25T06:38:17.517Z,99980.47
2018-07-25T06:40:48.494Z,99982.87
2018-07-25T06:43:19.536Z,99986.05
2018-07-25T06:45:50.495Z,99984.94
2018-07-25T06:48:21.481Z,99989.55
2018-07-25T06:50:52.517Z,99992.52
2018-07-25T06:53:23.505Z,99989.27
2018-07-25T06:55:54.517Z,99990.94
2018-07-25T06:58:25.504Z,99988.86
2018-07-25T07:00:56.477Z,99990.61
2018-07-25T07:03:27.516Z,99992.27
2018-07-25T07:05:58.508Z,99995.80
2018-07-25T07:08:29.494Z,99995.33
2018-07-25T07:11:00.516Z,99997.72
2018-07-25T07:13:31.529Z,100006.64
2018-07-25T07:16:02.494Z,100004.39
2018-07-25T07:18:33.481Z,99993.55
2018-07-25T07:21:04.496Z,99999.56
2018-07-25T07:23:35.542Z,99999.70
2018-07-25T07:26:07.391Z,99994.21
2018-07-25T07:28:38.667Z,99987.21
2018-07-25T07:31:09.545Z,99995.63
2018-07-25T07:33:40.513Z,99997.86
2018-07-25T07:36:11.517Z,99990.01
2018-07-25T07:38:42.502Z,99996.47
2018-07-25T07:41:13.501Z,99996.23
2018-07-25T07:43:44.505Z,99990.91
2018-07-25T07:46:15.491Z,99991.27
2018-07-25T07:48:46.492Z,99992.23
2018-07-25T07:51:17.483Z,99994.51
2018-07-25T07:53:48.497Z,99993.40
2018-07-25T07:56:19.404Z,99994.45
2018-07-25T07:58:50.507Z,99991.20
2018-07-25T08:01:21.560Z,99991.51
2018-07-25T08:03:52.507Z,99992.77
2018-07-25T08:06:23.490Z,99983.10
2018-07-25T08:10:33.598Z,99992.34
2018-07-25T08:13:04.493Z,99981.44
2018-07-25T08:15:35.550Z,99984.88
2018-07-25T08:18:06.517Z,99988.45
2018-07-25T08:23:24.386Z,99990.80
2018-07-25T08:25:55.489Z,99989.20
2018-07-25T08:28:26.493Z,99987.72
2018-07-25T08:30:57.494Z,99990.84
2018-07-25T08:33:29.023Z,99988.84
2018-07-25T08:36:00.293Z,99987.43
2018-07-25T08:38:38.620Z,99984.53
2018-07-25T08:41:09.502Z,99986.53
2018-07-25T08:43:41.621Z,99982.74
2018-07-25T08:46:13.399Z,99988.44
2018-07-25T08:48:46.394Z,99982.23
2018-07-25T08:51:18.600Z,99982.23
2018-07-25T08:53:51.928Z,99983.30
2018-07-25T08:56:30.723Z,99982.48
2018-07-25T08:59:02.304Z,99972.81
2018-07-25T09:01:33.391Z,99978.58
2018-07-25T09:04:04.480Z,99982.12
2018-07-25T09:06:35.552Z,99973.42
2018-07-25T09:09:10.714Z,99973.08
2018-07-25T09:11:41.802Z,99979.27
2018-07-25T09:14:12.496Z,99974.16
2018-07-25T09:16:44.418Z,99972.07
2018-07-25T09:19:15.648Z,99974.67
2018-07-25T09:21:46.560Z,99975.44
2018-07-25T09:24:17.503Z,99977.05
2018-07-25T09:26:48.482Z,99969.11
2018-07-25T09:29:19.502Z,99978.47
2018-07-25T09:31:50.482Z,99981.58
2018-07-25T09:34:21.518Z,99979.38
2018-07-25T09:36:52.501Z,99973.05
2018-07-25T09:39:23.473Z,99966.94
2018-07-25T09:41:54.514Z,99961.83
2018-07-25T09:44:25.486Z,99967.91
2018-07-25T09:46:56.606Z,99965.89
2018-07-25T09:49:27.507Z,99960.69
2018-07-25T09:51:58.490Z,99969.98
2018-07-25T09:54:29.489Z,99955.86
2018-07-25T09:57:00.651Z,99961.20
2018-07-25T09:59:31.589Z,99952.67
2018-07-25T10:02:02.588Z,99943.02
2018-07-25T10:04:33.500Z,99948.88
2018-07-25T10:07:04.597Z,99953.00
2018-07-25T10:09:35.473Z,99940.69
2018-07-25T10:12:06.516Z,99946.63
2018-07-25T10:14:37.501Z,99935.52
2018-07-25T10:17:08.505Z,99940.67
2018-07-25T10:19:39.502Z,99934.02
2018-07-25T10:22:10.530Z,99926.09
2018-07-25T10:24:41.622Z,99932.55
2018-07-25T10:27:12.474Z,99938.77
2018-07-25T10:29:44.497Z,99931.91
2018-07-25T10:32:16.388Z,99928.48
2018-07-25T10:34:47.501Z,99926.18
2018-07-25T10:37:18.533Z,99925.50
2018-07-25T10:39:49.498Z,99925.84
2018-07-25T10:42:20.496Z,99928.22
2018-07-25T10:44:51.686Z,99923.80
2018-07-25T10:47:22.563Z,99919.67
2018-07-25T10:49:53.513Z,99928.93
2018-07-25T10:52:24.524Z,99926.93
2018-07-25T10:54:55.493Z,99919.95
2018-07-25T10:57:26.521Z,99910.30
2018-07-25T10:59:57.477Z,99911.89
2018-07-25T11:02:28.485Z,99909.66
2018-07-25T11:04:59.696Z,99903.72
2018-07-25T11:07:30.658Z,99904.63
2018-07-25T11:10:01.553Z,99904.25
2018-07-25T11:12:32.507Z,99900.17
2018-07-25T11:15:03.514Z,99901.42
2018-07-25T11:17:34.496Z,99892.88
2018-07-25T11:20:06.308Z,99898.00
2018-07-25T11:22:37.371Z,99898.69
2018-07-25T11:25:08.377Z,99893.67
2018-07-25T11:27:39.512Z,99896.52
2018-07-25T11:30:10.469Z,99898.11
2018-07-25T11:32:42.491Z,99895.78
2018-07-25T11:35:13.424Z,99890.71
2018-07-25T11:37:44.438Z,99888.98
2018-07-25T11:40:15.449Z,99890.27
2018-07-25T11:42:46.471Z,99895.23
2018-07-25T11:45:17.457Z,99881.33
2018-07-25T11:47:48.497Z,99886.46
2018-07-25T11:50:19.467Z,99876.73
2018-07-25T11:52:50.458Z,99879.54
2018-07-25T11:55:21.459Z,99880.81
2018-07-25T11:57:52.597Z,99875.12
2018-07-25T12:00:23.475Z,99871.09
2018-07-25T12:02:54.524Z,99872.17
2018-07-25T12:05:25.726Z,99872.71
2018-07-25T12:07:56.562Z,99870.39
2018-07-25T12:10:27.459Z,99872.28
2018-07-25T12:12:58.518Z,99875.12
2018-07-25T12:15:29.433Z,99864.68
2018-07-25T12:18:00.495Z,99868.45
2018-07-25T12:20:31.462Z,99863.25
2018-07-25T12:23:02.463Z,99862.74
2018-07-25T12:25:33.436Z,99863.95
2018-07-25T12:28:04.441Z,99865.89
2018-07-25T12:30:35.456Z,99863.14
2018-07-25T12:33:06.570Z,99856.52
2018-07-25T12:35:37.469Z,99851.38
2018-07-25T12:38:08.458Z,99850.69
2018-07-25T12:40:39.449Z,99853.06
2018-07-25T12:43:10.481Z,99851.85
2018-07-25T12:45:41.457Z,99849.78
2018-07-25T12:48:12.518Z,99844.50
2018-07-25T12:50:43.485Z,99840.04
2018-07-25T12:53:14.523Z,99842.55
2018-07-25T12:55:45.449Z,99845.30
2018-07-25T12:58:16.457Z,99839.67
2018-07-25T13:00:47.681Z,99836.56
2018-07-25T13:03:18.488Z,99842.13
2018-07-25T13:05:49.444Z,99828.11
2018-07-25T13:08:20.488Z,99829.97
2018-07-25T13:10:51.569Z,99818.29
2018-07-25T13:13:22.525Z,99820.06
2018-07-25T13:15:53.531Z,99822.52
2018-07-25T13:18:24.482Z,99813.58
2018-07-25T13:20:55.512Z,99822.44
2018-07-25T13:23:26.532Z,99812.59
2018-07-25T13:25:58.398Z,99823.05
2018-07-25T13:28:29.613Z,99819.69
2018-07-25T13:31:00.501Z,99823.06
2018-07-25T13:33:31.438Z,99820.72
2018-07-25T13:36:02.499Z,99817.16
2018-07-25T13:38:33.556Z,99819.91
2018-07-25T13:41:04.694Z,99804.86
2018-07-25T13:43:35.672Z,99808.75
2018-07-25T13:46:06.710Z,99810.28
2018-07-25T13:48:37.521Z,99811.66
2018-07-25T13:51:08.502Z,99810.58
2018-07-25T13:53:39.485Z,99805.39
2018-07-25T13:56:11.029Z,99808.50
2018-07-25T13:58:42.299Z,99811.33
2018-07-25T14:01:13.370Z,99809.72
2018-07-25T14:03:44.380Z,99808.63
2018-07-25T14:06:15.393Z,99807.16
2018-07-25T14:08:46.493Z,99810.96
2018-07-25T14:11:17.709Z,99808.63
2018-07-25T14:13:48.574Z,99801.49
2018-07-25T14:16:19.469Z,99802.81
2018-07-25T14:18:50.474Z,99796.73
2018-07-25T14:21:21.452Z,99799.05
2018-07-25T14:23:52.560Z,99800.14
2018-07-25T14:26:23.450Z,99797.21
2018-07-25T14:28:56.063Z,99795.83
2018-07-25T14:31:27.401Z,99797.72
2018-07-25T14:33:58.473Z,99798.70
2018-07-25T14:36:29.466Z,99797.36
2018-07-25T14:39:00.611Z,99791.90
2018-07-25T14:41:31.510Z,99793.42
2018-07-25T14:44:02.482Z,99791.58
2018-07-25T14:46:33.448Z,99793.13
2018-07-25T14:49:04.637Z,99789.70
2018-07-25T14:51:35.564Z,99785.23
2018-07-25T14:54:06.579Z,99787.81
2018-07-25T14:56:37.492Z,99784.38
2018-07-25T14:59:08.462Z,99787.80
2018-07-25T15:01:39.457Z,99779.80
2018-07-25T15:04:10.477Z,99774.80
2018-07-25T15:06:41.463Z,99774.67
2018-07-25T15:09:12.665Z,99780.91
2018-07-25T15:11:43.549Z,99773.23
2018-07-25T15:14:14.484Z,99768.30
2018-07-25T15:16:45.501Z,99774.94
2018-07-25T15:19:16.460Z,99768.28
2018-07-25T15:21:47.405Z,99761.69
2018-07-25T15:24:18.478Z,99767.28
2018-07-25T15:26:49.484Z,99765.36
2018-07-25T15:29:20.493Z,99762.38
2018-07-25T15:31:51.440Z,99757.27
2018-07-25T15:34:22.504Z,99751.61
2018-07-25T15:36:54.397Z,99756.17
2018-07-25T15:39:27.329Z,99759.41
2018-07-25T15:41:59.457Z,99751.73
2018-07-25T15:44:30.615Z,99748.49
2018-07-25T15:47:01.529Z,99743.30
2018-07-25T15:49:32.461Z,99751.27
2018-07-25T15:52:03.457Z,99737.31
2018-07-25T15:54:34.409Z,99744.52
2018-07-25T15:57:05.493Z,99741.66
2018-07-25T15:59:36.512Z,99748.40
2018-07-25T16:02:07.645Z,99738.55
2018-07-25T16:04:38.532Z,99744.63
2018-07-25T16:07:09.458Z,99740.97
2018-07-25T16:09:40.528Z,99740.86
2018-07-25T16:12:11.522Z,99732.20
2018-07-25T16:14:42.478Z,99734.33
2018-07-25T16:17:13.453Z,99736.08
2018-07-25T16:19:44.461Z,99728.69
2018-07-25T16:22:15.458Z,99730.95
2018-07-25T16:24:47.261Z,99729.37
2018-07-25T16:27:18.362Z,99726.48
2018-07-25T16:29:49.443Z,99717.73
2018-07-25T16:32:20.679Z,99725.13
2018-07-25T16:34:51.561Z,99717.38
2018-07-25T16:37:22.480Z,99719.87
2018-07-25T16:39:53.498Z,99722.94
2018-07-25T16:42:24.520Z,99727.94
2018-07-25T16:44:55.451Z,99726.22
2018-07-25T16:47:26.511Z,99728.75
2018-07-25T16:49:57.569Z,99731.38
2018-07-25T16:52:28.465Z,99730.87
2018-07-25T16:54:59.460Z,99737.80
2018-07-25T16:57:30.448Z,99736.50
2018-07-25T17:00:01.452Z,99736.98
2018-07-25T17:02:32.552Z,99739.29
2018-07-25T17:05:03.519Z,99747.04
2018-07-25T17:07:34.457Z,99749.02
2018-07-25T17:10:06.028Z,99751.63
2018-07-25T17:12:37.269Z,99753.53
2018-07-25T17:15:08.625Z,99758.64
2018-07-25T17:17:39.501Z,99757.45
2018-07-25T17:20:10.499Z,99768.48
2018-07-25T17:22:41.534Z,99774.33
2018-07-25T17:25:12.462Z,99779.76
2018-07-25T17:27:43.514Z,99788.73
2018-07-25T17:30:14.530Z,99783.91
2018-07-25T17:32:45.490Z,99816.14
2018-07-25T17:35:16.512Z,99809.80
2018-07-25T17:37:47.492Z,99813.42
2018-07-25T17:40:18.508Z,99821.90
2018-07-25T17:42:49.518Z,99819.16
2018-07-25T17:45:20.521Z,99828.02
2018-07-25T17:47:51.534Z,99828.14
2018-07-25T17:50:22.526Z,99824.45
2018-07-25T17:52:53.551Z,99830.23
2018-07-25T17:55:24.543Z,99837.34
2018-07-25T17:57:55.834Z,99841.66
2018-07-25T18:00:26.292Z,99839.75
2018-07-25T18:02:57.389Z,99830.25
2018-07-25T18:05:28.514Z,99837.02
2018-07-25T18:07:59.525Z,99843.11
2018-07-25T18:10:30.510Z,99848.29
2018-07-25T18:13:06.785Z,99857.27
2018-07-25T18:15:37.560Z,99858.25
2018-07-25T18:18:08.509Z,99855.17
2018-07-25T18:20:39.538Z,99860.53
2018-07-25T18:23:10.522Z,99857.42
2018-07-25T18:25:41.506Z,99863.08
2018-07-25T18:28:12.521Z,99858.43
2018-07-25T18:30:43.538Z,99863.22
2018-07-25T18:33:14.484Z,99858.95
2018-07-25T18:35:45.494Z,99863.65
2018-07-25T18:38:16.426Z,99862.86
2018-07-25T18:40:47.586Z,99865.09
2018-07-25T18:43:18.525Z,99868.66
2018-07-25T18:45:49.461Z,99870.89
2018-07-25T18:48:20.453Z,99869.97
2018-07-25T18:50:51.794Z,99867.78
2018-07-25T18:53:22.590Z,99869.72
2018-07-25T18:55:53.576Z,99864.34
2018-07-25T18:58:24.482Z,99880.08
2018-07-25T19:00:55.470Z,99878.53
2018-07-25T19:03:26.473Z,99882.94
2018-07-25T19:05:57.445Z,99879.33
2018-07-25T19:08:28.474Z,99882.94
2018-07-25T19:10:59.453Z,99890.09
2018-07-25T19:13:35.021Z,99897.20
2018-07-25T19:16:07.180Z,99902.75
2018-07-25T19:18:38.286Z,99910.22
2018-07-25T19:21:09.357Z,99909.55
2018-07-25T19:23:40.450Z,99911.55
2018-07-25T19:26:11.502Z,99906.16
2018-07-25T19:28:42.493Z,99905.98
2018-07-25T19:31:13.517Z,99905.98
2018-07-25T19:33:44.489Z,99909.40
2018-07-25T19:36:15.526Z,99906.72
2018-07-25T19:38:46.488Z,99910.47
2018-07-25T19:41:17.488Z,99916.96
2018-07-25T19:43:48.516Z,99916.19
2018-07-25T19:46:19.501Z,99922.61
2018-07-25T19:48:50.510Z,99923.19
2018-07-25T19:51:21.541Z,99931.19
2018-07-25T19:53:52.500Z,99929.39
2018-07-25T19:56:23.529Z,99926.75
2018-07-25T19:58:54.533Z,99927.77
2018-07-25T20:01:25.509Z,99940.08
2018-07-25T20:03:56.499Z,99933.66
2018-07-25T20:06:27.528Z,99933.07
2018-07-25T20:08:58.478Z,99937.68
2018-07-25T20:11:29.608Z,99942.75
2018-07-25T20:14:05.635Z,99941.23
2018-07-25T20:16:36.563Z,99940.19
2018-07-25T20:19:07.479Z,99939.81
2018-07-25T20:21:38.489Z,99933.30
2018-07-25T20:24:09.513Z,99935.50
2018-07-25T20:26:40.507Z,99932.27
2018-07-25T20:29:11.530Z,99924.41
2018-07-25T20:31:42.534Z,99918.84
2018-07-25T20:34:13.489Z,99915.41
2018-07-25T20:36:44.622Z,99918.59
2018-07-25T20:39:15.685Z,99912.82
2018-07-25T20:41:46.563Z,99911.52
2018-07-25T20:44:17.521Z,99913.93
2018-07-25T20:46:48.557Z,99911.73
2018-07-25T20:49:19.494Z,99910.36
2018-07-25T20:51:50.493Z,99913.55
2018-07-25T20:54:21.521Z,99906.21
2018-07-25T20:56:52.624Z,99916.50
2018-07-25T20:59:23.553Z,99906.30
2018-07-25T21:01:54.501Z,99907.84
2018-07-25T21:04:25.493Z,99912.17
2018-07-25T21:06:56.502Z,99916.40
2018-07-25T21:09:27.488Z,99913.98
2018-07-25T21:11:58.477Z,99915.88
2018-07-25T21:14:29.514Z,99924.55
2018-07-25T21:17:00.546Z,99919.34
2018-07-25T21:19:31.489Z,99915.47
2018-07-25T21:22:02.521Z,99921.48
2018-07-25T21:24:33.499Z,99922.19
2018-07-25T21:27:04.533Z,99921.83
2018-07-25T21:29:35.496Z,99927.16
2018-07-25T21:32:06.572Z,99921.50
2018-07-25T21:34:37.501Z,99927.36
2018-07-25T21:37:08.450Z,99920.98
2018-07-25T21:39:39.493Z,99923.72
2018-07-25T21:42:10.523Z,99930.67
2018-07-25T21:44:41.457Z,99934.23
2018-07-25T21:47:12.475Z,99939.08
2018-07-25T21:49:43.438Z,99935.68
2018-07-25T21:52:14.498Z,99940.06
2018-07-25T21:54:45.515Z,99939.63
2018-07-25T21:57:16.505Z,99945.19
2018-07-25T21:59:47.547Z,99956.30
2018-07-25T22:02:18.544Z,99959.41
2018-07-25T22:04:49.493Z,99961.91
2018-07-25T22:07:20.478Z,99957.81
2018-07-25T22:09:51.487Z,99957.64
2018-07-25T22:12:22.503Z,99965.11
2018-07-25T22:14:53.445Z,99968.98
2018-07-25T22:17:24.493Z,99969.33
2018-07-25T22:19:55.468Z,99968.72
2018-07-25T22:22:26.495Z,99969.38
2018-07-25T22:24:57.395Z,99967.61
2018-07-25T22:27:28.421Z,99966.24
2018-07-25T22:29:59.502Z,99968.44
2018-07-25T22:32:30.509Z,99982.95
2018-07-25T22:35:01.488Z,99974.95
2018-07-25T22:37:32.504Z,99972.44
2018-07-25T22:40:03.495Z,99963.32
2018-07-25T22:42:34.510Z,99964.46
2018-07-25T22:45:05.496Z,99961.20
2018-07-25T22:47:36.477Z,99957.78
2018-07-25T22:50:07.502Z,99952.32
2018-07-25T22:52:38.489Z,99955.91
2018-07-25T22:55:09.503Z,99959.38
2018-07-25T22:57:40.504Z,99954.06
2018-07-25T23:00:11.511Z,99960.86
2018-07-25T23:02:42.473Z,99968.49
2018-07-25T23:05:13.492Z,99968.62
2018-07-25T23:07:44.513Z,99965.78
2018-07-25T23:10:15.484Z,99965.31
2018-07-25T23:12:46.507Z,99963.55
2018-07-25T23:15:17.498Z,99958.38
2018-07-25T23:17:48.517Z,99963.31
2018-07-25T23:20:19.497Z,99953.59
2018-07-25T23:22:57.463Z,99948.41
2018-07-25T23:25:28.902Z,99956.90
2018-07-25T23:28:00.696Z,99960.17
2018-07-25T23:30:31.481Z,99954.87
2018-07-25T23:33:02.465Z,99958.61
2018-07-25T23:35:33.420Z,99950.84
2018-07-25T23:38:04.488Z,99950.16
2018-07-25T23:40:35.458Z,99948.13
2018-07-25T23:43:06.493Z,99949.33
2018-07-25T23:45:37.456Z,99941.34
2018-07-25T23:48:08.469Z,99948.29
2018-07-25T23:50:39.474Z,99944.82
2018-07-25T23:53:10.477Z,99946.34
2018-07-25T23:55:41.456Z,99951.48
2018-07-25T23:58:12.477Z,99953.59
